Time;durP1;ratioP1;P1;durP2;ratioP2;P2;SDS_P1;SDS_P2;PMS_P1;PMS_P2;Temp;Humidity;BMP_temperature;BMP_pressure;BME280_temperature;BME280_humidity;BME280_pressure;Samples;Min_cycle;Max_cycle;Signal;HPM_P1;HPM_P2
2022/05/22 05:00:40;;;;;;;6.63;3.80;;;15.10;97.20;;;;;;1727365;28;20223;-76
2022/05/22 05:01:31;;;;;;;7.15;4.40;;;15.10;97.20;;;;;;1727368;28;20224;-77
2022/05/22 05:02:23;;;;;;;3.90;3.43;;;15.20;97.20;;;;;;1727206;28;20200;-76
2022/05/22 05:03:15;;;;;;;5.07;3.25;;;15.20;97.20;;;;;;1727480;28;20687;-76
2022/05/22 05:04:07;;;;;;;4.18;2.70;;;15.20;97.20;;;;;;1727307;28;20188;-76
2022/05/22 05:04:58;;;;;;;3.65;3.00;;;15.20;97.20;;;;;;1727407;28;20204;-76
2022/05/22 05:05:55;;;;;;;3.85;2.70;;;15.30;97.20;;;;;;1727309;28;20196;-76
2022/05/22 05:06:46;;;;;;;3.50;2.80;;;15.30;97.20;;;;;;1727387;28;20755;-76
2022/05/22 05:07:38;;;;;;;3.47;2.97;;;15.30;97.20;;;;;;1726907;28;20619;-76
2022/05/22 05:08:30;;;;;;;4.55;3.05;;;15.30;97.20;;;;;;1727315;28;20212;-77
2022/05/22 05:09:22;;;;;;;2.83;2.50;;;15.30;97.20;;;;;;1727260;28;20658;-76
2022/05/22 05:10:13;;;;;;;4.63;2.40;;;15.30;97.20;;;;;;1727279;28;20201;-76
2022/05/22 05:11:05;;;;;;;2.90;2.60;;;15.40;97.20;;;;;;1727351;28;20222;-76
2022/05/22 05:11:59;;;;;;;5.40;2.47;;;15.40;97.20;;;;;;1727397;28;20572;-76
2022/05/22 05:12:50;;;;;;;3.00;2.70;;;15.40;97.20;;;;;;1727325;28;20208;-76
2022/05/22 05:13:41;;;;;;;2.72;2.53;;;15.40;97.20;;;;;;1727443;28;20204;-76
2022/05/22 05:14:33;;;;;;;3.33;3.00;;;15.50;97.20;;;;;;1727410;28;20220;-76
2022/05/22 05:15:24;;;;;;;2.50;2.30;;;15.50;97.20;;;;;;1727019;28;20212;-76
2022/05/22 05:16:17;;;;;;;2.97;2.70;;;15.50;97.20;;;;;;1727221;28;20283;-76
2022/05/22 05:17:08;;;;;;;2.55;2.35;;;15.50;97.20;;;;;;1727069;28;20444;-76
2022/05/22 05:17:59;;;;;;;3.07;2.47;;;15.60;97.20;;;;;;1727103;28;20205;-77
2022/05/22 05:18:50;;;;;;;4.90;3.00;;;15.60;97.20;;;;;;1727275;28;20239;-77
2022/05/22 05:19:42;;;;;;;3.27;2.70;;;15.60;97.20;;;;;;1726956;28;20204;-76
2022/05/22 05:20:33;;;;;;;3.33;2.90;;;15.60;97.20;;;;;;1727199;28;20737;-76
2022/05/22 05:21:26;;;;;;;4.33;2.97;;;15.60;97.20;;;;;;1727299;28;20625;-76
2022/05/22 05:22:18;;;;;;;3.70;2.95;;;15.60;97.20;;;;;;1727360;28;20462;-76
2022/05/22 05:23:09;;;;;;;3.88;2.83;;;15.60;97.20;;;;;;1727285;28;20207;-76
2022/05/22 05:24:00;;;;;;;3.13;2.83;;;15.60;97.20;;;;;;1727261;28;20227;-77
2022/05/22 05:24:52;;;;;;;4.60;3.03;;;15.70;97.20;;;;;;1727263;28;20193;-76
2022/05/22 05:25:43;;;;;;;3.83;3.22;;;15.70;97.20;;;;;;1727346;28;20668;-76
2022/05/22 05:26:35;;;;;;;5.77;2.87;;;15.70;97.20;;;;;;1727304;28;20294;-76
2022/05/22 05:27:26;;;;;;;2.63;2.42;;;15.70;97.20;;;;;;1727276;28;20810;-76
2022/05/22 05:28:18;;;;;;;7.33;3.00;;;15.70;97.20;;;;;;1727307;28;20262;-76
2022/05/22 05:29:09;;;;;;;4.50;2.55;;;15.70;97.20;;;;;;1727017;28;20204;-76
2022/05/22 05:30:01;;;;;;;3.35;3.03;;;15.60;97.20;;;;;;1727293;28;20192;-76
2022/05/22 05:30:52;;;;;;;3.42;2.63;;;15.60;97.20;;;;;;1726808;28;20224;-76
2022/05/22 05:31:45;;;;;;;2.73;2.47;;;15.60;97.20;;;;;;1726940;28;20196;-76
2022/05/22 05:32:35;;;;;;;3.10;2.80;;;15.70;97.20;;;;;;1727284;28;20212;-77
2022/05/22 05:33:28;;;;;;;3.70;2.60;;;15.70;97.20;;;;;;1727288;28;20211;-76
2022/05/22 05:34:19;;;;;;;4.93;2.60;;;15.70;97.20;;;;;;1727233;28;20212;-76
2022/05/22 05:35:12;;;;;;;3.00;2.70;;;15.70;97.20;;;;;;1727272;28;20254;-76
2022/05/22 05:36:03;;;;;;;3.45;2.50;;;15.70;97.20;;;;;;1727269;28;20230;-76
2022/05/22 05:36:54;;;;;;;2.53;2.33;;;15.80;97.20;;;;;;1727274;28;20227;-76
2022/05/22 05:37:46;;;;;;;2.78;2.45;;;15.80;97.20;;;;;;1727276;28;20447;-76
2022/05/22 05:38:38;;;;;;;3.80;3.20;;;15.90;97.20;;;;;;1727015;28;20192;-77
2022/05/22 05:39:29;;;;;;;3.63;2.58;;;15.90;97.20;;;;;;1727034;28;20211;-77
2022/05/22 05:40:21;;;;;;;3.33;2.70;;;16.00;97.20;;;;;;1727128;28;20211;-77
2022/05/22 05:41:12;;;;;;;4.15;2.72;;;16.00;97.20;;;;;;1727298;28;20252;-76
2022/05/22 05:42:04;;;;;;;3.00;2.60;;;16.10;97.20;;;;;;1727313;28;20228;-77
2022/05/22 05:42:55;;;;;;;4.85;2.70;;;16.10;97.20;;;;;;1727374;28;20201;-77
2022/05/22 05:43:46;;;;;;;3.43;3.10;;;16.20;97.20;;;;;;1727403;28;20204;-77
2022/05/22 05:44:37;;;;;;;2.50;2.30;;;16.20;97.20;;;;;;1727367;28;20200;-77
2022/05/22 05:45:29;;;;;;;2.50;2.30;;;16.30;97.20;;;;;;1727293;28;20211;-76
2022/05/22 05:46:20;;;;;;;3.13;2.20;;;16.30;97.20;;;;;;1727295;28;20235;-76
2022/05/22 05:47:13;;;;;;;2.47;2.27;;;16.40;97.20;;;;;;1727040;28;20201;-77
2022/05/22 05:48:04;;;;;;;3.90;2.47;;;16.50;97.20;;;;;;1727220;28;20201;-76
2022/05/22 05:48:56;;;;;;;4.35;2.60;;;16.50;97.20;;;;;;1727221;28;20603;-76
2022/05/22 05:49:47;;;;;;;2.83;2.20;;;16.60;97.20;;;;;;1727024;28;20204;-77
2022/05/22 05:50:38;;;;;;;2.95;2.65;;;16.60;97.20;;;;;;1727031;28;20223;-77
2022/05/22 05:51:29;;;;;;;3.50;2.20;;;16.60;97.20;;;;;;1727131;28;20208;-77
2022/05/22 05:52:21;;;;;;;3.17;2.40;;;16.60;97.20;;;;;;1727324;28;20201;-77
2022/05/22 05:53:13;;;;;;;3.00;2.30;;;16.70;97.20;;;;;;1727267;28;20212;-76
2022/05/22 05:54:05;;;;;;;4.05;2.25;;;16.70;97.20;;;;;;1727258;28;20266;-76
2022/05/22 05:54:56;;;;;;;3.20;2.15;;;16.70;97.20;;;;;;1727286;28;20208;-76
2022/05/22 05:55:48;;;;;;;2.57;2.00;;;16.70;97.20;;;;;;1727255;28;20200;-77
2022/05/22 05:56:40;;;;;;;3.22;2.50;;;16.70;97.20;;;;;;1727314;28;20258;-77
2022/05/22 05:57:31;;;;;;;2.70;2.28;;;16.70;97.20;;;;;;1727641;28;20196;-76
2022/05/22 05:58:22;;;;;;;2.97;2.20;;;16.70;97.20;;;;;;1727829;28;21383;-77
2022/05/22 05:59:14;;;;;;;2.67;2.10;;;16.70;97.20;;;;;;1727027;28;20601;-77
2022/05/22 06:00:08;;;;;;;3.50;2.50;;;16.70;97.20;;;;;;1727283;28;20296;-77
2022/05/22 06:00:59;;;;;;;2.58;2.00;;;16.70;97.20;;;;;;1726895;28;20316;-77
2022/05/22 06:01:50;;;;;;;3.75;2.60;;;16.70;97.20;;;;;;1727122;28;22117;-76
2022/05/22 06:02:43;;;;;;;3.10;2.10;;;16.70;97.20;;;;;;1727037;28;20200;-77
2022/05/22 06:03:34;;;;;;;3.88;2.10;;;16.80;97.20;;;;;;1727041;28;20205;-77
2022/05/22 06:04:26;;;;;;;3.03;2.23;;;16.80;97.20;;;;;;1727249;28;20205;-77
2022/05/22 06:05:17;;;;;;;3.08;2.05;;;16.80;97.20;;;;;;1726998;28;20554;-77
2022/05/22 06:06:10;;;;;;;3.40;2.47;;;16.90;97.20;;;;;;1727166;28;20222;-76
2022/05/22 06:07:00;;;;;;;2.92;2.45;;;17.00;97.20;;;;;;1727236;28;20812;-77
2022/05/22 06:07:53;;;;;;;2.40;1.93;;;17.10;97.20;;;;;;1727147;28;20564;-77
2022/05/22 06:08:44;;;;;;;3.42;2.13;;;17.10;97.20;;;;;;1727201;28;20670;-76
2022/05/22 06:09:36;;;;;;;2.33;2.13;;;17.20;97.20;;;;;;1726811;28;20197;-76
2022/05/22 06:10:28;;;;;;;2.58;2.38;;;17.30;97.20;;;;;;1727025;28;20243;-77
2022/05/22 06:11:19;;;;;;;1.65;1.55;;;17.40;97.20;;;;;;1727210;28;20205;-76
2022/05/22 06:12:11;;;;;;;3.38;2.00;;;17.40;97.20;;;;;;1727188;28;20231;-76
2022/05/22 06:13:02;;;;;;;3.85;2.50;;;17.50;97.20;;;;;;1727265;28;20220;-77
2022/05/22 06:13:54;;;;;;;2.37;2.07;;;17.60;97.20;;;;;;1727196;28;20224;-77
2022/05/22 06:14:46;;;;;;;3.00;2.22;;;17.60;97.20;;;;;;1727304;28;20219;-77
2022/05/22 06:15:38;;;;;;;2.70;2.15;;;17.60;97.20;;;;;;1727209;28;20200;-77
2022/05/22 06:16:29;;;;;;;2.67;2.47;;;17.70;97.20;;;;;;1727108;28;20580;-77
2022/05/22 06:17:29;;;;;;;3.07;1.90;;;17.70;97.20;;;;;;1727181;28;20200;-76
2022/05/22 06:18:22;;;;;;;3.25;2.13;;;17.70;97.20;;;;;;1727031;28;20479;-77
2022/05/22 06:19:13;;;;;;;3.10;2.20;;;17.70;97.20;;;;;;1725634;28;20869;-77
2022/05/22 06:20:07;;;;;;;2.40;2.20;;;17.80;97.20;;;;;;1727669;28;20236;-77
2022/05/22 06:20:59;;;;;;;3.42;2.38;;;17.80;97.20;;;;;;1728342;28;20216;-79
2022/05/22 06:21:50;;;;;;;1.80;1.70;;;17.80;97.20;;;;;;1728404;28;20687;-77
2022/05/22 06:22:42;;;;;;;2.10;1.87;;;17.90;97.20;;;;;;1728432;28;20579;-77
2022/05/22 06:23:33;;;;;;;2.50;1.92;;;17.90;97.20;;;;;;1728279;28;20262;-77
2022/05/22 06:24:25;;;;;;;2.40;1.87;;;17.80;97.20;;;;;;1728425;28;20263;-77
2022/05/22 06:25:17;;;;;;;3.65;2.08;;;17.80;97.20;;;;;;1728290;28;20211;-77
2022/05/22 06:26:09;;;;;;;5.00;2.15;;;17.80;97.20;;;;;;1728194;28;20251;-77
2022/05/22 06:27:01;;;;;;;2.65;1.92;;;17.80;97.20;;;;;;1728298;28;20331;-77
2022/05/22 06:27:52;;;;;;;2.80;2.33;;;17.80;97.20;;;;;;1728291;28;20243;-77
2022/05/22 06:28:44;;;;;;;3.97;2.30;;;17.80;97.20;;;;;;1728265;28;20219;-77
2022/05/22 06:29:36;;;;;;;2.70;2.05;;;17.90;97.20;;;;;;1728120;28;20232;-77
2022/05/22 06:30:27;;;;;;;3.53;1.88;;;17.90;97.20;;;;;;1728061;28;20322;-77
2022/05/22 06:31:19;;;;;;;3.03;2.10;;;17.90;97.20;;;;;;1728421;28;20200;-77
2022/05/22 06:32:12;;;;;;;2.90;1.90;;;17.90;97.20;;;;;;1728212;28;20204;-77
2022/05/22 06:33:07;;;;;;;4.15;2.20;;;17.90;97.20;;;;;;1728318;28;20236;-77
2022/05/22 06:33:59;;;;;;;2.95;1.83;;;17.90;97.20;;;;;;1728557;28;20207;-77
2022/05/22 06:34:51;;;;;;;2.40;1.70;;;17.90;97.20;;;;;;1727876;28;20203;-77
2022/05/22 06:35:43;;;;;;;2.13;1.75;;;18.00;97.20;;;;;;1728359;28;20200;-77
2022/05/22 06:36:35;;;;;;;2.20;2.00;;;18.00;97.20;;;;;;1728054;28;20262;-77
2022/05/22 06:37:25;;;;;;;2.45;1.65;;;18.00;97.20;;;;;;1728442;28;20208;-77
2022/05/22 06:40:32;;;;;;;2.67;1.98;;;18.10;97.20;;;;;;1728216;28;20216;-78
2022/05/22 06:41:23;;;;;;;2.40;1.88;;;18.10;97.20;;;;;;1728495;28;20687;-77
2022/05/22 06:42:13;;;;;;;2.50;1.77;;;18.10;97.20;;;;;;1728229;28;20600;-77
2022/05/22 06:43:05;;;;;;;1.83;1.73;;;18.10;97.20;;;;;;1728261;28;20486;-78
2022/05/22 06:43:57;;;;;;;2.75;2.28;;;18.20;97.20;;;;;;1728501;28;20474;-77
2022/05/22 06:44:57;;;;;;;2.83;1.77;;;18.20;97.20;;;;;;1728354;28;20196;-78
2022/05/22 06:45:48;;;;;;;3.20;1.90;;;18.20;97.20;;;;;;1728188;28;20208;-77
2022/05/22 06:46:40;;;;;;;2.30;1.80;;;18.20;97.20;;;;;;1728259;28;20811;-77
2022/05/22 06:47:34;;;;;;;2.13;1.65;;;18.30;97.20;;;;;;1728202;28;20450;-78
2022/05/22 06:48:25;;;;;;;3.15;1.70;;;18.30;97.20;;;;;;1727954;28;20200;-78
2022/05/22 06:49:18;;;;;;;2.78;1.65;;;18.30;97.20;;;;;;1727882;28;20208;-78
2022/05/22 06:50:11;;;;;;;2.00;1.83;;;18.30;97.20;;;;;;1728223;28;20235;-78
2022/05/22 06:51:02;;;;;;;5.32;2.10;;;18.40;97.20;;;;;;1728076;28;20251;-77
2022/05/22 06:51:56;;;;;;;2.50;1.93;;;18.40;97.20;;;;;;1728194;28;20201;-77
2022/05/22 06:52:47;;;;;;;1.98;1.77;;;18.40;97.20;;;;;;1728191;28;20440;-77
2022/05/22 06:53:39;;;;;;;2.77;2.00;;;18.40;97.20;;;;;;1728156;28;20228;-78
2022/05/22 06:54:30;;;;;;;4.68;2.40;;;18.40;97.20;;;;;;1728089;28;20219;-77
2022/05/22 06:55:22;;;;;;;1.85;1.73;;;18.40;97.20;;;;;;1728279;28;20678;-77
2022/05/22 06:56:13;;;;;;;2.58;2.38;;;18.40;97.20;;;;;;1728184;28;20212;-78
2022/05/22 06:57:05;;;;;;;1.90;1.50;;;18.50;97.20;;;;;;1728252;28;20223;-77
2022/05/22 06:57:57;;;;;;;3.22;1.55;;;18.50;97.20;;;;;;1728132;28;20259;-77
2022/05/22 06:58:49;;;;;;;2.03;1.83;;;18.50;97.20;;;;;;1728098;28;20204;-77
2022/05/22 06:59:40;;;;;;;1.92;1.75;;;18.60;97.20;;;;;;1727779;28;20238;-77
2022/05/22 07:00:31;;;;;;;4.30;1.93;;;18.60;97.20;;;;;;1727820;28;20200;-77
2022/05/22 07:01:22;;;;;;;2.60;2.00;;;18.70;97.20;;;;;;1728025;28;20685;-77
2022/05/22 07:02:15;;;;;;;2.10;1.87;;;18.70;97.20;;;;;;1727995;28;20625;-78
2022/05/22 07:03:06;;;;;;;2.35;1.60;;;18.70;97.20;;;;;;1728111;28;20702;-76
2022/05/22 07:03:58;;;;;;;2.47;1.77;;;18.80;97.20;;;;;;1727868;28;20570;-77
2022/05/22 07:04:50;;;;;;;2.92;2.33;;;18.90;97.20;;;;;;1728770;28;20211;-79
2022/05/22 07:05:42;;;;;;;2.20;1.70;;;18.90;97.20;;;;;;1728291;28;20266;-77
2022/05/22 07:06:33;;;;;;;1.92;1.50;;;19.00;97.20;;;;;;1728042;28;20209;-77
2022/05/22 07:07:24;;;;;;;2.67;1.57;;;19.10;97.20;;;;;;1728278;28;20197;-77
2022/05/22 07:08:15;;;;;;;2.85;2.08;;;19.20;97.20;;;;;;1728078;28;20228;-76
2022/05/22 07:09:07;;;;;;;2.60;2.20;;;19.30;97.20;;;;;;1728041;28;20200;-79
2022/05/22 07:09:59;;;;;;;2.25;1.95;;;19.40;97.20;;;;;;1728151;28;20628;-78
2022/05/22 07:11:59;;;;;;;2.83;1.63;;;19.60;97.20;;;;;;1728155;28;20622;-77
2022/05/22 07:12:52;;;;;;;2.35;1.70;;;19.70;97.20;;;;;;1728139;28;20652;-77
2022/05/22 07:13:42;;;;;;;2.50;1.40;;;19.70;97.20;;;;;;1728042;28;20204;-77
2022/05/22 07:14:35;;;;;;;2.53;1.90;;;19.80;97.20;;;;;;1728098;28;20199;-77
2022/05/22 07:15:25;;;;;;;2.13;1.90;;;19.90;97.20;;;;;;1728048;28;20200;-77
2022/05/22 07:16:17;;;;;;;3.37;1.83;;;19.90;97.20;;;;;;1728094;28;20295;-77
2022/05/22 07:17:10;;;;;;;1.98;1.73;;;19.90;97.20;;;;;;1728027;28;20255;-77
2022/05/22 07:18:02;;;;;;;4.57;1.80;;;20.00;97.20;;;;;;1727918;28;20323;-77
2022/05/22 07:18:53;;;;;;;3.72;1.80;;;20.00;97.20;;;;;;1728080;28;20709;-77
2022/05/22 07:19:45;;;;;;;2.60;1.70;;;20.00;97.20;;;;;;1727522;28;20659;-77
2022/05/22 07:20:37;;;;;;;2.75;1.80;;;20.00;97.20;;;;;;1727878;28;20224;-77
2022/05/22 07:21:29;;;;;;;2.20;1.80;;;20.00;97.20;;;;;;1727955;28;20578;-77
2022/05/22 07:22:20;;;;;;;2.53;2.13;;;20.00;97.20;;;;;;1727849;28;20208;-77
2022/05/22 07:23:11;;;;;;;2.97;2.00;;;20.00;97.20;;;;;;1727923;28;20205;-77
2022/05/22 07:24:03;;;;;;;2.72;1.73;;;20.00;97.20;;;;;;1727973;28;20475;-77
2022/05/22 07:24:55;;;;;;;2.78;1.80;;;20.10;97.20;;;;;;1728028;28;20289;-77
2022/05/22 07:25:46;;;;;;;2.22;1.50;;;20.10;97.20;;;;;;1728043;28;20204;-77
2022/05/22 07:26:38;;;;;;;3.03;1.80;;;20.20;97.20;;;;;;1728131;28;20201;-77
2022/05/22 07:27:29;;;;;;;2.67;1.85;;;20.20;97.20;;;;;;1727930;28;20470;-77
2022/05/22 07:28:21;;;;;;;2.23;1.70;;;20.30;97.20;;;;;;1728015;28;20197;-77
2022/05/22 07:29:12;;;;;;;4.30;1.77;;;20.30;97.20;;;;;;1727702;28;20200;-78
2022/05/22 07:30:04;;;;;;;3.87;2.13;;;20.30;97.20;;;;;;1728176;28;20295;-78
2022/05/22 07:30:57;;;;;;;2.20;2.00;;;20.30;97.20;;;;;;1727482;28;20656;-77
2022/05/22 07:31:49;;;;;;;4.32;1.85;;;20.30;97.20;;;;;;1728063;28;20215;-77
2022/05/22 07:32:39;;;;;;;3.33;1.70;;;20.40;97.20;;;;;;1727994;28;20208;-77
2022/05/22 07:33:31;;;;;;;2.90;1.70;;;20.40;97.20;;;;;;1728063;28;20228;-77
2022/05/22 07:34:24;;;;;;;3.40;1.80;;;20.50;97.20;;;;;;1727880;28;20253;-77
2022/05/22 07:35:16;;;;;;;2.75;1.70;;;20.60;97.20;;;;;;1727721;28;20200;-77
2022/05/22 07:36:08;;;;;;;2.33;1.77;;;20.60;97.20;;;;;;1727957;28;20646;-77
2022/05/22 07:37:01;;;;;;;2.55;1.73;;;20.70;97.20;;;;;;1728096;28;20602;-77
2022/05/22 07:37:52;;;;;;;3.67;2.22;;;20.70;97.20;;;;;;1728077;28;20266;-77
2022/05/22 07:38:45;;;;;;;3.25;1.65;;;20.80;97.20;;;;;;1728159;28;20200;-77
2022/05/22 07:39:37;;;;;;;1.50;1.40;;;20.90;97.20;;;;;;1727794;28;20235;-77
2022/05/22 07:40:28;;;;;;;2.08;1.88;;;20.90;97.20;;;;;;1728064;28;20208;-79
2022/05/22 07:41:20;;;;;;;2.38;1.88;;;21.00;97.20;;;;;;1728004;28;20883;-77
2022/05/22 07:42:11;;;;;;;2.85;1.45;;;21.10;97.20;;;;;;1727877;28;20200;-76
2022/05/22 07:43:03;;;;;;;2.10;1.50;;;21.20;97.20;;;;;;1727892;28;20237;-77
2022/05/22 07:43:53;;;;;;;4.55;1.90;;;21.30;97.20;;;;;;1727878;28;20234;-77
2022/05/22 07:44:46;;;;;;;1.90;1.50;;;21.40;97.20;;;;;;1727972;28;20193;-77
2022/05/22 07:45:37;;;;;;;3.05;1.60;;;21.40;97.20;;;;;;1727846;28;20212;-77
2022/05/22 07:46:29;;;;;;;2.55;1.60;;;21.50;97.20;;;;;;1727773;28;20204;-77
2022/05/22 07:47:20;;;;;;;2.95;2.10;;;21.60;97.20;;;;;;1727902;28;20228;-77
2022/05/22 07:48:13;;;;;;;2.60;1.70;;;21.70;97.20;;;;;;1727864;28;20205;-77
2022/05/22 07:49:03;;;;;;;1.40;1.30;;;21.70;97.20;;;;;;1727647;28;20576;-77
2022/05/22 07:51:05;;;;;;;2.10;1.63;;;21.90;97.20;;;;;;1727890;28;20574;-77
2022/05/22 07:52:01;;;;;;;2.08;1.88;;;21.90;97.20;;;;;;1727908;28;20573;-77
2022/05/22 07:52:53;;;;;;;2.13;1.70;;;22.00;97.20;;;;;;1727854;28;20204;-77
2022/05/22 07:53:44;;;;;;;3.42;1.77;;;22.00;97.20;;;;;;1727810;28;20275;-77
2022/05/22 07:54:36;;;;;;;4.37;1.90;;;22.10;97.20;;;;;;1727801;28;20204;-77
2022/05/22 07:55:27;;;;;;;2.40;1.33;;;22.10;97.20;;;;;;1727808;28;20443;-77
2022/05/22 07:56:22;;;;;;;2.97;1.73;;;22.10;97.20;;;;;;1727734;28;20200;-77
2022/05/22 07:57:13;;;;;;;3.78;1.50;;;22.10;97.20;;;;;;1727881;28;20232;-77
2022/05/22 07:58:05;;;;;;;3.83;2.00;;;22.10;97.20;;;;;;1727793;28;20258;-77
2022/05/22 07:58:56;;;;;;;3.45;1.40;;;22.10;97.20;;;;;;1727904;28;20690;-77
2022/05/22 07:59:47;;;;;;;2.40;1.48;;;22.10;97.20;;;;;;1727543;28;20201;-77
2022/05/22 08:00:39;;;;;;;1.60;1.40;;;22.00;97.20;;;;;;1727621;28;20224;-78
2022/05/22 08:01:31;;;;;;;2.58;1.60;;;22.00;97.20;;;;;;1727815;28;20454;-78
2022/05/22 08:02:22;;;;;;;4.60;1.40;;;21.90;97.20;;;;;;1727753;28;20577;-77
2022/05/22 08:03:15;;;;;;;2.45;1.95;;;21.90;97.20;;;;;;1727802;28;20236;-77
2022/05/22 08:04:07;;;;;;;4.22;1.80;;;21.90;97.20;;;;;;1727781;28;20205;-77
2022/05/22 08:04:58;;;;;;;1.70;1.60;;;21.90;97.20;;;;;;1727356;28;20197;-78
2022/05/22 08:05:53;;;;;;;2.53;1.70;;;21.90;97.20;;;;;;1727657;28;20203;-77
2022/05/22 08:06:44;;;;;;;2.83;1.65;;;21.80;97.20;;;;;;1727707;28;20486;-77
2022/05/22 08:07:37;;;;;;;2.27;1.37;;;21.80;97.20;;;;;;1727756;28;20605;-78
2022/05/22 08:08:29;;;;;;;3.15;1.70;;;21.80;97.20;;;;;;1727721;28;20228;-78
2022/05/22 08:09:20;;;;;;;2.40;1.70;;;21.90;97.20;;;;;;1727534;28;20618;-78
2022/05/22 08:10:14;;;;;;;1.80;1.60;;;21.90;97.20;;;;;;1727751;28;20295;-78
2022/05/22 08:11:05;;;;;;;2.53;1.60;;;22.00;97.20;;;;;;1728300;28;20208;-79
2022/05/22 08:11:56;;;;;;;2.95;2.00;;;22.10;97.20;;;;;;1728623;28;20254;-80
2022/05/22 08:12:49;;;;;;;1.70;1.30;;;22.20;97.20;;;;;;1728359;28;20580;-79
2022/05/22 08:13:40;;;;;;;1.33;1.23;;;22.30;97.20;;;;;;1728668;28;20637;-80
2022/05/22 08:14:32;;;;;;;2.25;1.73;;;22.30;97.20;;;;;;1727822;28;20247;-77
2022/05/22 08:15:26;;;;;;;4.22;1.60;;;22.40;97.20;;;;;;1728143;28;20254;-79
2022/05/22 08:16:17;;;;;;;2.58;1.70;;;22.50;97.20;;;;;;1728703;28;20211;-79
2022/05/22 08:17:09;;;;;;;2.30;1.67;;;22.50;97.20;;;;;;1728403;28;20272;-79
2022/05/22 08:18:00;;;;;;;2.20;1.50;;;22.60;97.20;;;;;;1728340;28;20232;-79
2022/05/22 08:18:52;;;;;;;3.72;1.50;;;22.60;97.20;;;;;;1728463;28;20203;-79
2022/05/22 08:19:42;;;;;;;1.45;1.35;;;22.70;97.20;;;;;;1728210;28;20244;-79
2022/05/22 08:20:36;;;;;;;2.03;1.77;;;22.70;97.20;;;;;;1728659;28;20216;-80
2022/05/22 08:21:28;;;;;;;2.83;1.40;;;22.80;97.20;;;;;;1728959;28;20200;-80
2022/05/22 08:22:18;;;;;;;1.70;1.27;;;22.80;97.20;;;;;;1728828;28;20210;-79
2022/05/22 08:23:15;;;;;;;1.77;1.20;;;22.80;97.20;;;;;;1729728;28;20319;-79
2022/05/22 08:24:06;;;;;;;1.80;1.27;;;22.80;97.20;;;;;;1730620;28;20246;-80
2022/05/22 08:24:58;;;;;;;2.00;1.77;;;22.90;97.20;;;;;;1729352;28;20196;-79
2022/05/22 08:25:49;;;;;;;2.92;1.90;;;22.80;97.20;;;;;;1728696;28;20687;-79
2022/05/22 08:26:41;;;;;;;1.50;1.40;;;22.90;97.20;;;;;;1728779;28;20291;-79
2022/05/22 08:27:32;;;;;;;3.22;1.63;;;22.90;97.20;;;;;;1727857;28;20258;-78
2022/05/22 08:28:24;;;;;;;1.93;1.47;;;22.90;97.20;;;;;;1727612;28;20196;-78
2022/05/22 08:29:15;;;;;;;1.67;1.55;;;22.90;97.20;;;;;;1727552;28;20250;-78
2022/05/22 08:30:08;;;;;;;1.90;1.70;;;23.00;97.20;;;;;;1727528;28;20201;-77
2022/05/22 08:30:59;;;;;;;4.97;1.90;;;23.00;97.20;;;;;;1727575;28;20259;-77
2022/05/22 08:31:50;;;;;;;2.25;2.03;;;23.00;97.20;;;;;;1727674;28;20600;-77
2022/05/22 08:32:44;;;;;;;2.40;1.50;;;23.10;97.20;;;;;;1727664;28;20295;-77
2022/05/22 08:33:36;;;;;;;2.53;1.50;;;23.10;97.20;;;;;;1727657;28;20204;-77
2022/05/22 08:34:28;;;;;;;1.98;1.77;;;23.20;97.20;;;;;;1727844;28;20244;-77
2022/05/22 08:35:22;;;;;;;2.40;2.20;;;23.20;97.20;;;;;;1730227;28;20208;-82
2022/05/22 08:36:14;;;;;;;4.60;3.85;;;23.20;97.20;;;;;;1730256;28;20200;-83
2022/05/22 08:37:05;;;;;;;2.92;2.72;;;23.30;97.20;;;;;;1733131;28;20373;-84
2022/05/22 08:37:57;;;;;;;2.30;2.10;;;23.40;97.20;;;;;;1733034;28;20288;-84
2022/05/22 08:38:49;;;;;;;2.60;1.90;;;23.50;97.20;;;;;;1732982;28;20200;-83
2022/05/22 08:39:41;;;;;;;2.45;2.08;;;23.50;97.20;;;;;;1732403;28;20231;-83
2022/05/22 08:40:41;;;;;;;2.85;2.65;;;23.60;97.20;;;;;;1732474;28;20207;-81
2022/05/22 08:41:38;;;;;;;1.88;1.60;;;23.70;97.20;;;;;;1732762;28;20667;-82
2022/05/22 08:42:38;;;;;;;3.38;2.90;;;23.80;97.20;;;;;;1732213;28;20216;-83
2022/05/22 08:43:34;;;;;;;1.98;1.70;;;23.80;97.20;;;;;;1731913;28;20777;-82
2022/05/22 08:44:30;;;;;;;2.65;1.33;;;23.80;97.20;;;;;;1730396;28;20201;-79
2022/05/22 08:45:27;;;;;;;3.30;2.30;;;23.80;97.20;;;;;;1728064;28;20201;-85
2022/05/22 08:46:23;;;;;;;1.70;1.30;;;23.90;97.20;;;;;;1728804;28;20243;-81
2022/05/22 08:47:20;;;;;;;3.42;1.83;;;23.90;97.20;;;;;;1728300;28;20200;-79
2022/05/22 08:48:17;;;;;;;2.60;2.40;;;23.90;97.20;;;;;;1728108;28;20197;-79
2022/05/22 08:49:18;;;;;;;6.82;5.18;;;23.90;97.20;;;;;;1727919;28;20204;-79
2022/05/22 08:50:13;;;;;;;4.93;3.45;;;24.00;97.20;;;;;;1728308;28;20299;-79
2022/05/22 08:51:08;;;;;;;3.58;2.50;;;24.10;97.20;;;;;;1730160;28;20637;-79
2022/05/22 08:52:20;;;;;;;3.15;2.05;;;24.20;97.20;;;;;;1728744;28;20205;-78
2022/05/22 08:53:18;;;;;;;1.95;1.70;;;24.30;97.20;;;;;;1728689;28;20208;-78
2022/05/22 08:54:21;;;;;;;4.22;2.60;;;24.40;97.20;;;;;;1728722;28;20197;-78
2022/05/22 08:55:15;;;;;;;2.60;2.40;;;24.50;97.20;;;;;;1732395;28;20201;-80
2022/05/22 08:59:02;;;;;;;4.32;2.13;;;24.80;97.20;;;;;;1715590;28;20204;-78
2022/05/22 08:59:54;;;;;;;3.85;2.25;;;24.90;97.20;;;;;;1714384;28;20232;-80
2022/05/22 09:00:46;;;;;;;2.10;1.98;;;24.90;97.20;;;;;;1718879;28;20240;-80
2022/05/22 09:01:43;;;;;;;3.63;2.25;;;25.00;97.20;;;;;;1718874;28;20202;-79
2022/05/22 09:02:41;;;;;;;2.08;1.88;;;25.00;97.20;;;;;;1718880;28;20248;-79
2022/05/22 09:03:39;;;;;;;2.78;2.50;;;25.10;97.20;;;;;;1727583;28;20252;-80
2022/05/22 09:04:35;;;;;;;2.75;2.42;;;25.20;97.20;;;;;;1733570;28;20308;-80
2022/05/22 09:05:29;;;;;;;2.20;2.00;;;25.20;97.20;;;;;;1733852;28;20219;-80
2022/05/22 09:06:27;;;;;;;1.98;1.88;;;25.30;97.20;;;;;;1733802;28;20196;-80
2022/05/22 09:07:21;;;;;;;2.55;2.22;;;25.40;97.20;;;;;;1731891;28;20204;-79
2022/05/22 09:08:24;;;;;;;3.95;2.25;;;25.50;97.20;;;;;;1727667;28;20200;-79
2022/05/22 09:09:17;;;;;;;4.00;1.92;;;25.50;97.20;;;;;;1727455;28;20219;-78
2022/05/22 09:10:12;;;;;;;2.97;1.80;;;25.60;97.20;;;;;;1727873;28;20200;-79
2022/05/22 09:11:08;;;;;;;3.00;1.98;;;25.70;97.20;;;;;;1727670;28;20212;-79
2022/05/22 09:12:15;;;;;;;3.05;2.20;;;25.70;97.20;;;;;;1727675;28;20204;-78
2022/05/22 09:13:16;;;;;;;3.10;1.90;;;25.80;97.20;;;;;;1728063;28;20200;-79
2022/05/22 09:14:10;;;;;;;2.70;1.77;;;25.80;97.20;;;;;;1727977;28;20291;-79
2022/05/22 09:15:06;;;;;;;2.53;1.75;;;25.90;97.20;;;;;;1728772;28;20196;-80
2022/05/22 09:16:05;;;;;;;4.63;1.75;;;25.90;97.20;;;;;;1728853;28;20653;-81
2022/05/22 09:17:02;;;;;;;2.55;1.60;;;26.00;97.20;;;;;;1728667;28;20232;-79
2022/05/22 09:18:00;;;;;;;1.95;1.70;;;26.10;97.20;;;;;;1727877;28;20283;-79
2022/05/22 09:19:01;;;;;;;4.93;1.98;;;26.10;97.20;;;;;;1727852;28;20212;-79
2022/05/22 09:20:02;;;;;;;2.13;1.90;;;26.20;97.20;;;;;;1729495;28;20208;-81
2022/05/22 09:20:55;;;;;;;3.67;1.90;;;26.30;97.20;;;;;;1729231;28;20220;-80
2022/05/22 09:21:57;;;;;;;2.90;1.70;;;26.30;97.20;;;;;;1729149;28;20192;-81
2022/05/22 09:23:12;;;;;;;2.60;1.70;;;26.40;97.20;;;;;;1729037;28;20695;-80
2022/05/22 09:24:06;;;;;;;2.13;1.63;;;26.40;97.20;;;;;;1729013;28;20223;-81
2022/05/22 09:25:11;;;;;;;3.35;2.03;;;26.50;97.20;;;;;;1728583;28;20219;-83
2022/05/22 09:26:09;;;;;;;2.35;1.70;;;26.50;97.20;;;;;;1728915;28;20209;-84
2022/05/22 09:27:07;;;;;;;1.60;1.50;;;26.60;97.20;;;;;;1723529;28;20580;-84
2022/05/22 09:28:10;;;;;;;3.92;1.42;;;26.70;97.20;;;;;;1727825;28;20239;-82
2022/05/22 09:29:08;;;;;;;3.05;1.50;;;26.70;97.20;;;;;;1727279;28;20204;-81
2022/05/22 09:30:06;;;;;;;1.98;1.65;;;26.80;97.20;;;;;;1724770;28;20193;-81
2022/05/22 09:31:03;;;;;;;2.35;1.73;;;26.80;97.20;;;;;;1726111;28;20307;-81
2022/05/22 09:32:04;;;;;;;3.25;2.00;;;26.80;97.20;;;;;;1729140;28;20206;-81
2022/05/22 09:33:10;;;;;;;1.90;1.60;;;26.90;97.20;;;;;;1723852;28;20252;-81
2022/05/22 09:34:09;;;;;;;3.25;1.70;;;26.90;97.20;;;;;;1721564;28;20205;-77
2022/05/22 09:35:14;;;;;;;2.75;1.65;;;26.90;97.20;;;;;;1721681;28;20665;-81
2022/05/22 09:36:18;;;;;;;4.30;1.40;;;26.90;97.20;;;;;;1723080;28;20205;-80
2022/05/22 09:37:24;;;;;;;3.00;1.40;;;27.00;97.20;;;;;;1722124;28;20644;-80
2022/05/22 09:38:44;;;;;;;3.15;1.70;;;27.00;97.20;;;;;;1722013;28;20212;-80
2022/05/22 09:40:08;;;;;;;1.60;1.40;;;27.00;97.20;;;;;;1724535;28;20596;-78
2022/05/22 09:41:09;;;;;;;4.05;1.60;;;27.10;97.20;;;;;;1727870;28;20224;-80
2022/05/22 09:42:13;;;;;;;2.47;1.67;;;27.20;97.20;;;;;;1725835;28;20233;-78
2022/05/22 09:43:15;;;;;;;1.63;1.40;;;27.30;97.20;;;;;;1725878;28;20212;-78
2022/05/22 09:44:29;;;;;;;2.65;1.60;;;27.30;97.20;;;;;;1725615;28;20247;-78
2022/05/22 09:45:33;;;;;;;2.42;1.40;;;27.30;97.20;;;;;;1725578;28;20215;-78
2022/05/22 09:46:48;;;;;;;3.53;1.50;;;27.40;97.20;;;;;;1725677;28;20224;-77